sensor_id;sensor_type;location;lat;lon;timestamp;P1;durP1;ratioP1;P2;durP2;ratioP2
76667;SDS011;65585;51.166;16.922;2023-02-22T00:01:31;9.80;;;5.40;;
76667;SDS011;65585;51.166;16.922;2023-02-22T00:04:07;11.02;;;4.65;;
76667;SDS011;65585;51.166;16.922;2023-02-22T00:06:35;12.23;;;5.00;;
76667;SDS011;65585;51.166;16.922;2023-02-22T00:09:03;12.93;;;4.90;;
76667;SDS011;65585;51.166;16.922;2023-02-22T00:11:34;14.65;;;5.60;;
76667;SDS011;65585;51.166;16.922;2023-02-22T00:14:00;16.02;;;4.65;;
76667;SDS011;65585;51.166;16.922;2023-02-22T00:16:27;13.25;;;5.07;;
76667;SDS011;65585;51.166;16.922;2023-02-22T00:18:54;8.27;;;4.90;;
76667;SDS011;65585;51.166;16.922;2023-02-22T00:21:21;13.77;;;4.40;;
76667;SDS011;65585;51.166;16.922;2023-02-22T00:23:47;13.90;;;5.13;;
76667;SDS011;65585;51.166;16.922;2023-02-22T00:26:15;14.20;;;5.95;;
76667;SDS011;65585;51.166;16.922;2023-02-22T00:28:49;18.33;;;5.18;;
76667;SDS011;65585;51.166;16.922;2023-02-22T00:31:23;10.82;;;4.50;;
76667;SDS011;65585;51.166;16.922;2023-02-22T00:33:48;10.65;;;4.82;;
76667;SDS011;65585;51.166;16.922;2023-02-22T00:36:15;8.23;;;4.40;;
76667;SDS011;65585;51.166;16.922;2023-02-22T00:38:41;11.50;;;5.03;;
76667;SDS011;65585;51.166;16.922;2023-02-22T00:41:08;9.75;;;4.45;;
76667;SDS011;65585;51.166;16.922;2023-02-22T00:43:34;9.48;;;4.82;;
76667;SDS011;65585;51.166;16.922;2023-02-22T00:46:01;8.05;;;4.78;;
76667;SDS011;65585;51.166;16.922;2023-02-22T00:48:27;15.82;;;4.82;;
76667;SDS011;65585;51.166;16.922;2023-02-22T00:50:54;9.98;;;4.40;;
76667;SDS011;65585;51.166;16.922;2023-02-22T00:53:21;12.75;;;5.15;;
76667;SDS011;65585;51.166;16.922;2023-02-22T00:55:48;9.10;;;4.93;;
76667;SDS011;65585;51.166;16.922;2023-02-22T00:58:14;9.25;;;4.32;;
76667;SDS011;65585;51.166;16.922;2023-02-22T01:00:42;14.57;;;4.93;;
76667;SDS011;65585;51.166;16.922;2023-02-22T01:03:09;8.95;;;4.50;;
76667;SDS011;65585;51.166;16.922;2023-02-22T01:05:37;12.82;;;4.47;;
76667;SDS011;65585;51.166;16.922;2023-02-22T01:08:04;8.43;;;4.90;;
76667;SDS011;65585;51.166;16.922;2023-02-22T01:10:32;13.48;;;5.05;;
76667;SDS011;65585;51.166;16.922;2023-02-22T01:12:59;8.02;;;4.97;;
76667;SDS011;65585;51.166;16.922;2023-02-22T01:15:27;11.52;;;4.60;;
76667;SDS011;65585;51.166;16.922;2023-02-22T01:17:55;11.95;;;4.22;;
76667;SDS011;65585;51.166;16.922;2023-02-22T01:20:26;12.00;;;5.82;;
76667;SDS011;65585;51.166;16.922;2023-02-22T01:22:54;12.02;;;5.30;;
76667;SDS011;65585;51.166;16.922;2023-02-22T01:27:55;11.80;;;5.43;;
76667;SDS011;65585;51.166;16.922;2023-02-22T01:30:23;14.75;;;5.85;;
76667;SDS011;65585;51.166;16.922;2023-02-22T01:32:53;8.38;;;4.88;;
76667;SDS011;65585;51.166;16.922;2023-02-22T01:35:22;7.93;;;4.72;;
76667;SDS011;65585;51.166;16.922;2023-02-22T01:37:49;8.98;;;4.47;;
76667;SDS011;65585;51.166;16.922;2023-02-22T01:40:18;11.00;;;4.72;;
76667;SDS011;65585;51.166;16.922;2023-02-22T01:42:50;10.88;;;4.50;;
76667;SDS011;65585;51.166;16.922;2023-02-22T01:50:30;9.98;;;4.88;;
76667;SDS011;65585;51.166;16.922;2023-02-22T01:53:04;13.20;;;5.40;;
76667;SDS011;65585;51.166;16.922;2023-02-22T01:55:31;11.98;;;5.05;;
76667;SDS011;65585;51.166;16.922;2023-02-22T01:57:58;11.25;;;4.97;;
76667;SDS011;65585;51.166;16.922;2023-02-22T02:00:29;10.68;;;5.72;;
76667;SDS011;65585;51.166;16.922;2023-02-22T02:02:57;8.50;;;5.22;;
76667;SDS011;65585;51.166;16.922;2023-02-22T02:05:30;10.93;;;5.32;;
76667;SDS011;65585;51.166;16.922;2023-02-22T02:07:58;15.13;;;6.03;;
76667;SDS011;65585;51.166;16.922;2023-02-22T02:10:28;10.35;;;5.43;;
76667;SDS011;65585;51.166;16.922;2023-02-22T02:12:57;16.75;;;5.90;;
76667;SDS011;65585;51.166;16.922;2023-02-22T02:15:25;11.77;;;5.93;;
76667;SDS011;65585;51.166;16.922;2023-02-22T02:17:56;14.57;;;6.43;;
76667;SDS011;65585;51.166;16.922;2023-02-22T02:31:07;20.60;;;7.57;;
76667;SDS011;65585;51.166;16.922;2023-02-22T02:36:18;13.80;;;7.57;;
76667;SDS011;65585;51.166;16.922;2023-02-22T02:39:14;21.35;;;7.90;;
76667;SDS011;65585;51.166;16.922;2023-02-22T02:41:46;19.50;;;6.85;;
76667;SDS011;65585;51.166;16.922;2023-02-22T02:45:02;18.90;;;6.88;;
76667;SDS011;65585;51.166;16.922;2023-02-22T02:47:04;15.95;;;7.05;;
76667;SDS011;65585;51.166;16.922;2023-02-22T02:49:43;18.98;;;8.07;;
76667;SDS011;65585;51.166;16.922;2023-02-22T02:52:13;23.45;;;9.43;;
76667;SDS011;65585;51.166;16.922;2023-02-22T02:54:40;12.38;;;7.20;;
76667;SDS011;65585;51.166;16.922;2023-02-22T02:57:07;18.27;;;7.43;;
76667;SDS011;65585;51.166;16.922;2023-02-22T02:59:36;16.08;;;7.57;;
76667;SDS011;65585;51.166;16.922;2023-02-22T03:07:53;18.10;;;7.88;;
76667;SDS011;65585;51.166;16.922;2023-02-22T03:21:25;27.08;;;11.55;;
76667;SDS011;65585;51.166;16.922;2023-02-22T03:24:29;29.73;;;12.02;;
76667;SDS011;65585;51.166;16.922;2023-02-22T03:27:05;26.25;;;11.60;;
76667;SDS011;65585;51.166;16.922;2023-02-22T03:29:37;19.15;;;9.68;;
76667;SDS011;65585;51.166;16.922;2023-02-22T03:32:12;23.50;;;9.38;;
76667;SDS011;65585;51.166;16.922;2023-02-22T03:34:47;23.95;;;10.43;;
76667;SDS011;65585;51.166;16.922;2023-02-22T03:37:19;22.98;;;9.75;;
76667;SDS011;65585;51.166;16.922;2023-02-22T03:39:48;25.13;;;10.30;;
76667;SDS011;65585;51.166;16.922;2023-02-22T03:42:17;27.13;;;10.70;;
76667;SDS011;65585;51.166;16.922;2023-02-22T03:44:47;23.08;;;9.52;;
76667;SDS011;65585;51.166;16.922;2023-02-22T03:47:27;21.77;;;8.77;;
76667;SDS011;65585;51.166;16.922;2023-02-22T03:50:08;21.92;;;8.95;;
76667;SDS011;65585;51.166;16.922;2023-02-22T03:52:40;13.77;;;7.80;;
76667;SDS011;65585;51.166;16.922;2023-02-22T03:55:08;20.92;;;8.82;;
76667;SDS011;65585;51.166;16.922;2023-02-22T03:57:36;22.45;;;8.82;;
76667;SDS011;65585;51.166;16.922;2023-02-22T04:00:12;21.60;;;8.75;;
76667;SDS011;65585;51.166;16.922;2023-02-22T04:02:43;22.00;;;8.13;;
76667;SDS011;65585;51.166;16.922;2023-02-22T04:05:09;20.38;;;9.40;;
76667;SDS011;65585;51.166;16.922;2023-02-22T04:07:36;18.25;;;9.27;;
76667;SDS011;65585;51.166;16.922;2023-02-22T04:10:04;19.95;;;8.88;;
76667;SDS011;65585;51.166;16.922;2023-02-22T04:12:33;18.30;;;10.18;;
76667;SDS011;65585;51.166;16.922;2023-02-22T04:15:03;18.83;;;9.45;;
76667;SDS011;65585;51.166;16.922;2023-02-22T04:17:31;26.42;;;10.40;;
76667;SDS011;65585;51.166;16.922;2023-02-22T04:20:03;22.90;;;9.98;;
76667;SDS011;65585;51.166;16.922;2023-02-22T04:22:34;23.05;;;9.75;;
76667;SDS011;65585;51.166;16.922;2023-02-22T04:25:02;16.52;;;9.07;;
76667;SDS011;65585;51.166;16.922;2023-02-22T04:27:29;20.83;;;9.02;;
76667;SDS011;65585;51.166;16.922;2023-02-22T04:29:59;20.38;;;9.65;;
76667;SDS011;65585;51.166;16.922;2023-02-22T04:32:26;20.08;;;9.00;;
76667;SDS011;65585;51.166;16.922;2023-02-22T04:34:52;26.80;;;10.48;;
76667;SDS011;65585;51.166;16.922;2023-02-22T04:37:18;21.20;;;10.25;;
76667;SDS011;65585;51.166;16.922;2023-02-22T04:39:45;22.90;;;10.43;;
76667;SDS011;65585;51.166;16.922;2023-02-22T04:42:14;23.00;;;10.93;;
76667;SDS011;65585;51.166;16.922;2023-02-22T04:44:40;18.05;;;9.30;;
76667;SDS011;65585;51.166;16.922;2023-02-22T04:47:06;21.88;;;10.73;;
76667;SDS011;65585;51.166;16.922;2023-02-22T04:49:34;17.88;;;10.73;;
76667;SDS011;65585;51.166;16.922;2023-02-22T04:52:03;27.38;;;11.60;;
76667;SDS011;65585;51.166;16.922;2023-02-22T04:54:32;21.48;;;10.68;;
76667;SDS011;65585;51.166;16.922;2023-02-22T04:56:57;25.30;;;11.48;;
76667;SDS011;65585;51.166;16.922;2023-02-22T04:59:24;21.77;;;10.55;;
76667;SDS011;65585;51.166;16.922;2023-02-22T05:01:53;19.63;;;9.68;;
76667;SDS011;65585;51.166;16.922;2023-02-22T05:04:19;18.35;;;9.52;;
76667;SDS011;65585;51.166;16.922;2023-02-22T05:06:49;22.00;;;9.98;;
76667;SDS011;65585;51.166;16.922;2023-02-22T05:09:15;17.77;;;9.45;;
76667;SDS011;65585;51.166;16.922;2023-02-22T05:11:47;23.88;;;9.65;;
76667;SDS011;65585;51.166;16.922;2023-02-22T05:14:14;18.95;;;9.90;;
76667;SDS011;65585;51.166;16.922;2023-02-22T05:16:40;23.05;;;9.60;;
76667;SDS011;65585;51.166;16.922;2023-02-22T05:19:06;20.98;;;11.18;;
76667;SDS011;65585;51.166;16.922;2023-02-22T05:21:32;25.98;;;11.00;;
76667;SDS011;65585;51.166;16.922;2023-02-22T05:24:02;19.88;;;9.23;;
76667;SDS011;65585;51.166;16.922;2023-02-22T05:26:28;17.25;;;9.40;;
76667;SDS011;65585;51.166;16.922;2023-02-22T05:28:54;20.23;;;8.73;;
76667;SDS011;65585;51.166;16.922;2023-02-22T05:31:20;14.27;;;7.95;;
76667;SDS011;65585;51.166;16.922;2023-02-22T05:33:47;15.27;;;6.80;;
76667;SDS011;65585;51.166;16.922;2023-02-22T05:36:13;14.98;;;7.60;;
76667;SDS011;65585;51.166;16.922;2023-02-22T05:38:39;22.48;;;8.07;;
76667;SDS011;65585;51.166;16.922;2023-02-22T05:41:08;12.57;;;7.13;;
76667;SDS011;65585;51.166;16.922;2023-02-22T05:43:36;16.55;;;8.10;;
76667;SDS011;65585;51.166;16.922;2023-02-22T05:46:02;17.48;;;8.45;;
76667;SDS011;65585;51.166;16.922;2023-02-22T05:48:32;16.13;;;8.75;;
76667;SDS011;65585;51.166;16.922;2023-02-22T05:51:09;20.90;;;10.07;;
76667;SDS011;65585;51.166;16.922;2023-02-22T05:53:36;18.30;;;10.55;;
76667;SDS011;65585;51.166;16.922;2023-02-22T05:56:05;15.77;;;8.88;;
76667;SDS011;65585;51.166;16.922;2023-02-22T05:58:34;20.20;;;9.80;;
76667;SDS011;65585;51.166;16.922;2023-02-22T06:01:03;16.25;;;8.52;;
76667;SDS011;65585;51.166;16.922;2023-02-22T06:03:29;14.63;;;7.40;;
76667;SDS011;65585;51.166;16.922;2023-02-22T06:05:55;10.70;;;6.18;;
76667;SDS011;65585;51.166;16.922;2023-02-22T06:08:32;17.13;;;7.25;;
76667;SDS011;65585;51.166;16.922;2023-02-22T06:10:58;12.50;;;5.82;;
76667;SDS011;65585;51.166;16.922;2023-02-22T06:13:34;14.20;;;5.95;;
76667;SDS011;65585;51.166;16.922;2023-02-22T06:16:02;11.93;;;5.93;;
76667;SDS011;65585;51.166;16.922;2023-02-22T06:18:29;12.68;;;5.53;;
76667;SDS011;65585;51.166;16.922;2023-02-22T06:20:58;14.23;;;5.80;;
76667;SDS011;65585;51.166;16.922;2023-02-22T06:23:25;13.80;;;5.65;;
76667;SDS011;65585;51.166;16.922;2023-02-22T06:25:54;13.10;;;6.28;;
76667;SDS011;65585;51.166;16.922;2023-02-22T06:28:21;15.07;;;6.03;;
76667;SDS011;65585;51.166;16.922;2023-02-22T06:30:48;12.55;;;5.97;;
76667;SDS011;65585;51.166;16.922;2023-02-22T06:33:19;15.82;;;6.07;;
76667;SDS011;65585;51.166;16.922;2023-02-22T06:36:01;14.38;;;6.38;;
76667;SDS011;65585;51.166;16.922;2023-02-22T06:38:56;10.30;;;5.70;;
76667;SDS011;65585;51.166;16.922;2023-02-22T06:41:24;12.88;;;5.65;;
76667;SDS011;65585;51.166;16.922;2023-02-22T06:43:50;12.63;;;5.57;;
76667;SDS011;65585;51.166;16.922;2023-02-22T06:46:17;16.65;;;6.82;;
76667;SDS011;65585;51.166;16.922;2023-02-22T06:48:47;16.25;;;6.35;;
76667;SDS011;65585;51.166;16.922;2023-02-22T06:51:17;11.65;;;6.07;;
76667;SDS011;65585;51.166;16.922;2023-02-22T06:53:47;10.98;;;5.60;;
76667;SDS011;65585;51.166;16.922;2023-02-22T06:56:18;12.20;;;6.07;;
76667;SDS011;65585;51.166;16.922;2023-02-22T06:58:48;11.68;;;6.43;;
76667;SDS011;65585;51.166;16.922;2023-02-22T07:01:18;16.27;;;6.57;;
76667;SDS011;65585;51.166;16.922;2023-02-22T07:03:49;11.48;;;6.63;;
76667;SDS011;65585;51.166;16.922;2023-02-22T07:06:18;15.85;;;6.80;;
76667;SDS011;65585;51.166;16.922;2023-02-22T07:08:44;14.18;;;6.70;;
76667;SDS011;65585;51.166;16.922;2023-02-22T07:11:15;19.38;;;7.25;;
76667;SDS011;65585;51.166;16.922;2023-02-22T07:13:41;14.10;;;6.45;;
76667;SDS011;65585;51.166;16.922;2023-02-22T07:16:08;16.60;;;8.23;;
76667;SDS011;65585;51.166;16.922;2023-02-22T07:18:36;12.82;;;5.70;;
76667;SDS011;65585;51.166;16.922;2023-02-22T07:21:05;16.52;;;7.72;;
76667;SDS011;65585;51.166;16.922;2023-02-22T07:23:35;14.77;;;6.85;;
76667;SDS011;65585;51.166;16.922;2023-02-22T07:26:07;14.32;;;6.50;;
76667;SDS011;65585;51.166;16.922;2023-02-22T07:28:35;15.15;;;5.97;;
76667;SDS011;65585;51.166;16.922;2023-02-22T07:31:03;12.27;;;6.65;;
76667;SDS011;65585;51.166;16.922;2023-02-22T07:33:31;17.10;;;6.93;;
76667;SDS011;65585;51.166;16.922;2023-02-22T07:35:57;19.63;;;7.32;;
76667;SDS011;65585;51.166;16.922;2023-02-22T07:38:24;20.13;;;7.32;;
76667;SDS011;65585;51.166;16.922;2023-02-22T07:40:51;17.17;;;7.57;;
76667;SDS011;65585;51.166;16.922;2023-02-22T07:43:21;12.88;;;6.22;;
76667;SDS011;65585;51.166;16.922;2023-02-22T07:45:57;13.25;;;7.55;;
76667;SDS011;65585;51.166;16.922;2023-02-22T07:48:26;19.80;;;7.43;;
76667;SDS011;65585;51.166;16.922;2023-02-22T07:50:57;19.10;;;7.57;;
76667;SDS011;65585;51.166;16.922;2023-02-22T07:53:28;14.25;;;7.45;;
76667;SDS011;65585;51.166;16.922;2023-02-22T07:56:01;13.85;;;6.80;;
76667;SDS011;65585;51.166;16.922;2023-02-22T08:01:30;13.65;;;7.00;;
76667;SDS011;65585;51.166;16.922;2023-02-22T08:03:56;13.85;;;6.40;;
76667;SDS011;65585;51.166;16.922;2023-02-22T08:06:24;20.08;;;7.70;;
76667;SDS011;65585;51.166;16.922;2023-02-22T08:08:53;22.92;;;8.65;;
76667;SDS011;65585;51.166;16.922;2023-02-22T08:11:28;22.27;;;7.80;;
76667;SDS011;65585;51.166;16.922;2023-02-22T08:13:56;18.02;;;7.95;;
76667;SDS011;65585;51.166;16.922;2023-02-22T08:16:24;15.77;;;7.70;;
76667;SDS011;65585;51.166;16.922;2023-02-22T08:18:51;20.75;;;7.82;;
76667;SDS011;65585;51.166;16.922;2023-02-22T08:21:22;15.65;;;7.00;;
76667;SDS011;65585;51.166;16.922;2023-02-22T08:23:52;15.05;;;6.80;;
76667;SDS011;65585;51.166;16.922;2023-02-22T08:26:23;16.40;;;6.97;;
76667;SDS011;65585;51.166;16.922;2023-02-22T08:28:49;16.13;;;6.38;;
76667;SDS011;65585;51.166;16.922;2023-02-22T08:31:17;13.10;;;6.13;;
76667;SDS011;65585;51.166;16.922;2023-02-22T08:33:45;15.00;;;6.53;;
76667;SDS011;65585;51.166;16.922;2023-02-22T08:36:16;17.25;;;5.85;;
76667;SDS011;65585;51.166;16.922;2023-02-22T08:38:44;14.05;;;5.60;;
76667;SDS011;65585;51.166;16.922;2023-02-22T08:41:29;14.20;;;5.53;;
76667;SDS011;65585;51.166;16.922;2023-02-22T08:43:59;14.48;;;4.40;;
76667;SDS011;65585;51.166;16.922;2023-02-22T08:49:13;16.00;;;5.03;;
76667;SDS011;65585;51.166;16.922;2023-02-22T08:52:05;15.65;;;4.90;;
76667;SDS011;65585;51.166;16.922;2023-02-22T08:54:35;19.00;;;5.20;;
76667;SDS011;65585;51.166;16.922;2023-02-22T08:57:02;10.13;;;4.15;;
76667;SDS011;65585;51.166;16.922;2023-02-22T08:59:45;14.18;;;5.65;;
76667;SDS011;65585;51.166;16.922;2023-02-22T09:02:13;17.80;;;5.38;;
76667;SDS011;65585;51.166;16.922;2023-02-22T09:07:36;16.08;;;5.55;;
76667;SDS011;65585;51.166;16.922;2023-02-22T09:10:32;10.63;;;4.00;;
76667;SDS011;65585;51.166;16.922;2023-02-22T09:13:18;14.80;;;4.57;;
76667;SDS011;65585;51.166;16.922;2023-02-22T09:15:54;15.90;;;4.20;;
76667;SDS011;65585;51.166;16.922;2023-02-22T09:18:20;19.08;;;5.57;;
76667;SDS011;65585;51.166;16.922;2023-02-22T09:20:47;14.30;;;5.30;;
76667;SDS011;65585;51.166;16.922;2023-02-22T09:23:20;13.02;;;4.35;;
76667;SDS011;65585;51.166;16.922;2023-02-22T09:26:07;12.45;;;4.07;;
76667;SDS011;65585;51.166;16.922;2023-02-22T09:28:58;16.25;;;3.92;;
76667;SDS011;65585;51.166;16.922;2023-02-22T09:31:55;13.90;;;4.20;;
76667;SDS011;65585;51.166;16.922;2023-02-22T09:34:53;8.15;;;3.28;;
76667;SDS011;65585;51.166;16.922;2023-02-22T09:41:12;12.52;;;3.92;;
76667;SDS011;65585;51.166;16.922;2023-02-22T09:43:50;13.13;;;3.58;;
76667;SDS011;65585;51.166;16.922;2023-02-22T09:46:33;11.55;;;4.22;;
76667;SDS011;65585;51.166;16.922;2023-02-22T09:49:11;10.70;;;3.22;;
76667;SDS011;65585;51.166;16.922;2023-02-22T09:52:05;11.30;;;3.42;;
76667;SDS011;65585;51.166;16.922;2023-02-22T09:55:19;17.20;;;3.72;;
76667;SDS011;65585;51.166;16.922;2023-02-22T09:58:28;15.38;;;3.45;;
76667;SDS011;65585;51.166;16.922;2023-02-22T10:01:53;11.48;;;3.60;;
76667;SDS011;65585;51.166;16.922;2023-02-22T10:08:01;18.38;;;3.95;;
76667;SDS011;65585;51.166;16.922;2023-02-22T10:10:33;16.45;;;4.47;;
76667;SDS011;65585;51.166;16.922;2023-02-22T10:19:48;9.30;;;3.88;;
76667;SDS011;65585;51.166;16.922;2023-02-22T10:25:19;10.57;;;3.67;;
76667;SDS011;65585;51.166;16.922;2023-02-22T10:28:02;15.00;;;4.25;;
76667;SDS011;65585;51.166;16.922;2023-02-22T10:31:11;13.77;;;3.97;;
76667;SDS011;65585;51.166;16.922;2023-02-22T10:37:23;17.23;;;3.20;;
76667;SDS011;65585;51.166;16.922;2023-02-22T10:40:14;9.52;;;3.00;;
76667;SDS011;65585;51.166;16.922;2023-02-22T10:42:45;16.73;;;3.65;;
76667;SDS011;65585;51.166;16.922;2023-02-22T10:45:30;12.00;;;3.78;;
76667;SDS011;65585;51.166;16.922;2023-02-22T10:48:06;15.50;;;4.07;;
76667;SDS011;65585;51.166;16.922;2023-02-22T10:50:51;11.90;;;3.38;;
76667;SDS011;65585;51.166;16.922;2023-02-22T10:53:37;15.43;;;3.83;;
76667;SDS011;65585;51.166;16.922;2023-02-22T10:56:28;15.10;;;3.67;;
76667;SDS011;65585;51.166;16.922;2023-02-22T10:59:36;11.93;;;3.15;;
76667;SDS011;65585;51.166;16.922;2023-02-22T11:02:22;12.88;;;3.25;;
76667;SDS011;65585;51.166;16.922;2023-02-22T11:04:58;9.35;;;3.28;;
76667;SDS011;65585;51.166;16.922;2023-02-22T11:07:37;14.02;;;3.33;;
76667;SDS011;65585;51.166;16.922;2023-02-22T11:10:09;10.05;;;3.17;;
76667;SDS011;65585;51.166;16.922;2023-02-22T11:12:51;9.88;;;3.28;;
76667;SDS011;65585;51.166;16.922;2023-02-22T11:15:34;8.73;;;3.28;;
76667;SDS011;65585;51.166;16.922;2023-02-22T11:21:23;11.63;;;3.42;;
76667;SDS011;65585;51.166;16.922;2023-02-22T11:24:08;13.20;;;3.90;;
76667;SDS011;65585;51.166;16.922;2023-02-22T11:26:46;13.23;;;3.83;;
76667;SDS011;65585;51.166;16.922;2023-02-22T11:29:33;8.90;;;3.90;;
76667;SDS011;65585;51.166;16.922;2023-02-22T11:32:11;9.80;;;3.30;;
76667;SDS011;65585;51.166;16.922;2023-02-22T11:34:39;13.85;;;4.35;;
76667;SDS011;65585;51.166;16.922;2023-02-22T11:43:13;10.85;;;3.35;;
76667;SDS011;65585;51.166;16.922;2023-02-22T11:49:01;8.30;;;3.38;;
76667;SDS011;65585;51.166;16.922;2023-02-22T11:55:15;17.42;;;4.47;;
76667;SDS011;65585;51.166;16.922;2023-02-22T12:03:31;12.27;;;3.53;;
76667;SDS011;65585;51.166;16.922;2023-02-22T12:06:46;13.80;;;3.72;;
76667;SDS011;65585;51.166;16.922;2023-02-22T12:10:41;8.25;;;4.05;;
76667;SDS011;65585;51.166;16.922;2023-02-22T12:13:40;10.15;;;3.38;;
76667;SDS011;65585;51.166;16.922;2023-02-22T12:20:03;12.88;;;4.20;;
76667;SDS011;65585;51.166;16.922;2023-02-22T12:23:04;9.90;;;3.15;;
76667;SDS011;65585;51.166;16.922;2023-02-22T12:28:38;11.05;;;3.13;;
76667;SDS011;65585;51.166;16.922;2023-02-22T12:31:14;10.35;;;3.95;;
76667;SDS011;65585;51.166;16.922;2023-02-22T12:34:06;12.18;;;3.53;;
76667;SDS011;65585;51.166;16.922;2023-02-22T12:42:20;8.40;;;2.80;;
76667;SDS011;65585;51.166;16.922;2023-02-22T12:44:53;7.22;;;3.33;;
76667;SDS011;65585;51.166;16.922;2023-02-22T12:47:36;10.30;;;3.63;;
76667;SDS011;65585;51.166;16.922;2023-02-22T12:50:23;11.80;;;3.47;;
76667;SDS011;65585;51.166;16.922;2023-02-22T12:52:58;9.20;;;3.10;;
76667;SDS011;65585;51.166;16.922;2023-02-22T12:59:10;11.68;;;3.47;;
76667;SDS011;65585;51.166;16.922;2023-02-22T13:01:44;9.73;;;2.92;;
76667;SDS011;65585;51.166;16.922;2023-02-22T13:04:23;10.35;;;3.22;;
76667;SDS011;65585;51.166;16.922;2023-02-22T13:12:17;7.40;;;3.45;;
76667;SDS011;65585;51.166;16.922;2023-02-22T13:23:08;8.25;;;2.88;;
76667;SDS011;65585;51.166;16.922;2023-02-22T13:25:50;8.00;;;3.20;;
76667;SDS011;65585;51.166;16.922;2023-02-22T13:28:30;11.73;;;3.25;;
76667;SDS011;65585;51.166;16.922;2023-02-22T13:51:03;8.45;;;3.60;;
76667;SDS011;65585;51.166;16.922;2023-02-22T13:53:55;13.90;;;4.00;;
76667;SDS011;65585;51.166;16.922;2023-02-22T13:56:26;8.98;;;3.55;;
76667;SDS011;65585;51.166;16.922;2023-02-22T13:58:56;10.00;;;2.95;;
76667;SDS011;65585;51.166;16.922;2023-02-22T14:06:36;15.07;;;3.50;;
76667;SDS011;65585;51.166;16.922;2023-02-22T14:09:07;9.60;;;3.15;;
76667;SDS011;65585;51.166;16.922;2023-02-22T14:16:43;7.65;;;3.28;;
76667;SDS011;65585;51.166;16.922;2023-02-22T14:19:18;8.00;;;2.88;;
76667;SDS011;65585;51.166;16.922;2023-02-22T14:21:54;6.43;;;3.17;;
76667;SDS011;65585;51.166;16.922;2023-02-22T14:24:44;8.52;;;3.08;;
76667;SDS011;65585;51.166;16.922;2023-02-22T14:27:23;10.77;;;3.50;;
76667;SDS011;65585;51.166;16.922;2023-02-22T14:29:55;12.88;;;3.67;;
76667;SDS011;65585;51.166;16.922;2023-02-22T14:32:33;9.30;;;3.75;;
76667;SDS011;65585;51.166;16.922;2023-02-22T14:37:36;8.68;;;2.95;;
76667;SDS011;65585;51.166;16.922;2023-02-22T14:42:57;6.10;;;2.65;;
76667;SDS011;65585;51.166;16.922;2023-02-22T14:45:47;8.15;;;2.67;;
76667;SDS011;65585;51.166;16.922;2023-02-22T14:48:26;6.80;;;3.03;;
76667;SDS011;65585;51.166;16.922;2023-02-22T14:51:06;11.25;;;3.53;;
76667;SDS011;65585;51.166;16.922;2023-02-22T14:53:51;9.70;;;3.65;;
76667;SDS011;65585;51.166;16.922;2023-02-22T14:56:40;8.38;;;3.20;;
76667;SDS011;65585;51.166;16.922;2023-02-22T14:59:14;9.80;;;2.70;;
76667;SDS011;65585;51.166;16.922;2023-02-22T15:01:45;9.38;;;3.75;;
76667;SDS011;65585;51.166;16.922;2023-02-22T15:04:16;11.85;;;3.70;;
76667;SDS011;65585;51.166;16.922;2023-02-22T15:06:55;7.35;;;2.92;;
76667;SDS011;65585;51.166;16.922;2023-02-22T15:09:29;10.13;;;3.10;;
76667;SDS011;65585;51.166;16.922;2023-02-22T15:14:36;10.40;;;3.78;;
76667;SDS011;65585;51.166;16.922;2023-02-22T15:17:18;10.20;;;3.17;;
76667;SDS011;65585;51.166;16.922;2023-02-22T15:19:49;9.90;;;3.17;;
76667;SDS011;65585;51.166;16.922;2023-02-22T15:22:23;8.52;;;3.08;;
76667;SDS011;65585;51.166;16.922;2023-02-22T15:25:09;8.70;;;3.30;;
76667;SDS011;65585;51.166;16.922;2023-02-22T15:27:42;8.50;;;3.58;;
76667;SDS011;65585;51.166;16.922;2023-02-22T15:30:24;8.15;;;3.13;;
76667;SDS011;65585;51.166;16.922;2023-02-22T15:32:56;8.57;;;2.83;;
76667;SDS011;65585;51.166;16.922;2023-02-22T15:35:41;6.70;;;3.33;;
76667;SDS011;65585;51.166;16.922;2023-02-22T15:40:38;6.85;;;3.45;;
76667;SDS011;65585;51.166;16.922;2023-02-22T15:43:18;7.32;;;3.33;;
76667;SDS011;65585;51.166;16.922;2023-02-22T15:45:52;8.25;;;3.25;;
76667;SDS011;65585;51.166;16.922;2023-02-22T15:48:22;6.18;;;3.13;;
76667;SDS011;65585;51.166;16.922;2023-02-22T15:51:10;6.47;;;3.13;;
76667;SDS011;65585;51.166;16.922;2023-02-22T15:53:48;9.30;;;3.60;;
76667;SDS011;65585;51.166;16.922;2023-02-22T15:56:35;9.75;;;3.40;;
76667;SDS011;65585;51.166;16.922;2023-02-22T15:59:12;7.00;;;3.05;;
76667;SDS011;65585;51.166;16.922;2023-02-22T16:01:44;9.80;;;3.65;;
76667;SDS011;65585;51.166;16.922;2023-02-22T16:04:26;9.15;;;3.47;;
76667;SDS011;65585;51.166;16.922;2023-02-22T16:07:03;13.05;;;3.60;;
76667;SDS011;65585;51.166;16.922;2023-02-22T16:09:46;8.23;;;2.85;;
76667;SDS011;65585;51.166;16.922;2023-02-22T16:14:46;8.48;;;3.65;;
76667;SDS011;65585;51.166;16.922;2023-02-22T16:22:42;10.55;;;4.07;;
76667;SDS011;65585;51.166;16.922;2023-02-22T16:27:47;7.85;;;3.90;;
76667;SDS011;65585;51.166;16.922;2023-02-22T16:32:47;13.73;;;4.47;;
76667;SDS011;65585;51.166;16.922;2023-02-22T16:35:16;12.68;;;4.63;;
76667;SDS011;65585;51.166;16.922;2023-02-22T16:37:49;10.55;;;3.95;;
76667;SDS011;65585;51.166;16.922;2023-02-22T16:40:25;9.13;;;5.20;;
76667;SDS011;65585;51.166;16.922;2023-02-22T16:42:57;11.02;;;4.35;;
76667;SDS011;65585;51.166;16.922;2023-02-22T16:45:28;10.25;;;4.05;;
76667;SDS011;65585;51.166;16.922;2023-02-22T16:47:55;8.90;;;4.13;;
76667;SDS011;65585;51.166;16.922;2023-02-22T16:50:22;13.98;;;3.95;;
76667;SDS011;65585;51.166;16.922;2023-02-22T16:52:48;12.45;;;3.92;;
76667;SDS011;65585;51.166;16.922;2023-02-22T16:55:37;11.43;;;4.35;;
76667;SDS011;65585;51.166;16.922;2023-02-22T16:58:14;8.73;;;3.92;;
76667;SDS011;65585;51.166;16.922;2023-02-22T17:00:45;13.00;;;4.63;;
76667;SDS011;65585;51.166;16.922;2023-02-22T17:03:15;13.63;;;5.00;;
76667;SDS011;65585;51.166;16.922;2023-02-22T17:05:48;11.68;;;3.97;;
76667;SDS011;65585;51.166;16.922;2023-02-22T17:08:17;11.18;;;4.18;;
76667;SDS011;65585;51.166;16.922;2023-02-22T17:10:43;14.57;;;4.68;;
76667;SDS011;65585;51.166;16.922;2023-02-22T17:13:17;16.58;;;5.18;;
76667;SDS011;65585;51.166;16.922;2023-02-22T17:15:44;13.38;;;5.22;;
76667;SDS011;65585;51.166;16.922;2023-02-22T17:18:12;9.15;;;4.78;;
76667;SDS011;65585;51.166;16.922;2023-02-22T17:20:44;10.27;;;4.75;;
76667;SDS011;65585;51.166;16.922;2023-02-22T17:23:13;16.92;;;6.90;;
76667;SDS011;65585;51.166;16.922;2023-02-22T17:25:41;15.90;;;5.57;;
76667;SDS011;65585;51.166;16.922;2023-02-22T17:28:11;14.63;;;5.68;;
76667;SDS011;65585;51.166;16.922;2023-02-22T17:30:44;19.58;;;6.63;;
76667;SDS011;65585;51.166;16.922;2023-02-22T17:33:14;11.63;;;5.00;;
76667;SDS011;65585;51.166;16.922;2023-02-22T17:35:47;10.65;;;4.80;;
76667;SDS011;65585;51.166;16.922;2023-02-22T17:38:27;15.80;;;5.22;;
76667;SDS011;65585;51.166;16.922;2023-02-22T17:41:09;11.32;;;4.40;;
76667;SDS011;65585;51.166;16.922;2023-02-22T17:43:38;10.52;;;5.03;;
76667;SDS011;65585;51.166;16.922;2023-02-22T17:46:06;12.82;;;5.95;;
76667;SDS011;65585;51.166;16.922;2023-02-22T17:48:36;10.88;;;4.65;;
76667;SDS011;65585;51.166;16.922;2023-02-22T17:51:07;17.25;;;8.43;;
76667;SDS011;65585;51.166;16.922;2023-02-22T17:53:35;20.98;;;11.27;;